Terminal Aerodrome Forecast
Issued by NWS Duluth, MN

Home | Current Version | Previous Version | Text Only | Print | Product List | Glossary On
Versions: 1 2 3 4 5 6 7 8 9 10 11 12 13 14 15 16 17 18 19 20 21 22 23 24 25 26 27 28 29 30 31 32
000
FTUS43 KDLH 261100
TAFDLH
TAF
KDLH 261134Z 2612/2712 16010KT 3SM -FZDZSN OVC025
      TEMPO 2612/2613 1/2SM SN OVC015
     FM261400 22007KT P6SM VCSH OVC015
      TEMPO 2614/2618 4SM -FZDZSN
     FM261800 28008KT P6SM OVC015
     FM262200 32008KT P6SM OVC015
     FM270000 35006KT P6SM OVC030=

USA.gov is the U.S. government's official web portal to all federal, state and local government web resources and services.